In Rescue
 
Open Full Screen Window  High Contrast Mode
Wind Gusting 23 knots
13
March 01, 2024 2:49 PM CST
Weather Information
Wind Direction
  180 °
Wind Speed
  13 kt (15 mph)
Wind Gust
  23 kt (26 mph)
Altimeter
29.78 in
Visibility
10 SM
Temperature
15° C
59° F
Dewpoint
00° C
32° F
Humidity
36%
Sky Condition
Clear
VFR

METAR KSGS 012049Z AUTO 18013G23KT 10SM CLR 15/00 A2978 RMK AO2 T01450001

FAA Disclaimer: The data displayed is for advisory purposes only and is not to be used for flight planning or operations.